createdAt,value
2023-02-04T19:16:14.319Z,95548.94
2023-02-04T19:18:54.699Z,95512.44
2023-02-04T19:21:25.708Z,95541.69
2023-02-04T19:24:01.595Z,95517.72
2023-02-04T19:31:55.821Z,95525.25
2023-02-04T19:34:33.933Z,95517.66
2023-02-04T19:39:38.357Z,95534.34
2023-02-04T19:47:35.273Z,95535.00
2023-02-04T19:52:38.827Z,95529.00
2023-02-04T20:22:17.334Z,95540.75
2023-02-04T20:50:38.582Z,95553.09
2023-02-04T20:53:16.586Z,95552.44
2023-02-04T20:55:49.136Z,95573.22
2023-02-04T20:58:19.328Z,95534.91
2023-02-04T21:00:51.940Z,95548.06
2023-02-04T21:03:33.553Z,95556.91
2023-02-04T21:06:00.658Z,95544.22
2023-02-04T21:08:33.355Z,95546.78
2023-02-04T21:11:00.378Z,95546.09
2023-02-04T21:13:26.834Z,95540.91
2023-02-04T21:15:53.626Z,95565.97
2023-02-04T21:18:20.207Z,95556.84
2023-02-04T21:20:46.603Z,95541.94
2023-02-04T21:23:13.078Z,95556.59
2023-02-04T21:25:39.477Z,95546.84
2023-02-04T21:28:06.414Z,95521.09
2023-02-04T21:30:33.036Z,95536.97
2023-02-04T21:33:00.380Z,95531.66
2023-02-04T21:35:26.827Z,95575.28
2023-02-04T21:37:54.836Z,95575.63
2023-02-04T21:40:22.351Z,95579.69
2023-02-04T21:42:49.397Z,95577.47
2023-02-04T21:45:17.542Z,95554.00
2023-02-04T21:47:44.785Z,95575.53
2023-02-04T21:50:14.261Z,95558.44
2023-02-04T21:52:41.630Z,95593.88
2023-02-04T21:55:09.461Z,95594.97
2023-02-04T21:57:35.914Z,95565.53
2023-02-04T22:00:02.457Z,95587.88
2023-02-04T22:02:28.865Z,95566.69
2023-02-04T22:04:55.257Z,95594.38
2023-02-04T22:07:21.731Z,95579.81
2023-02-04T22:09:49.983Z,95580.78
2023-02-04T22:12:17.717Z,95587.78
2023-02-04T22:14:44.272Z,95576.41
2023-02-04T22:17:10.734Z,95584.66
2023-02-04T22:19:37.495Z,95602.03
2023-02-04T22:22:03.901Z,95582.63
2023-02-04T22:24:30.301Z,95570.50
2023-02-04T22:26:56.700Z,95582.81
2023-02-04T22:29:28.524Z,95598.91
2023-02-04T22:31:55.027Z,95581.94
2023-02-04T22:34:22.200Z,95577.59
2023-02-04T22:36:48.899Z,95581.25
2023-02-04T22:39:15.354Z,95566.63
2023-02-04T22:41:41.749Z,95559.44
2023-02-04T22:44:08.152Z,95561.91
2023-02-04T22:46:34.611Z,95586.75
2023-02-04T22:49:01.221Z,95578.06
2023-02-04T22:51:27.714Z,95579.25
2023-02-04T22:53:54.145Z,95571.16
2023-02-04T22:56:21.485Z,95590.22
2023-02-04T22:58:47.848Z,95573.09
2023-02-04T23:01:14.376Z,95581.00
2023-02-04T23:03:40.894Z,95582.63
2023-02-04T23:06:07.516Z,95573.97
2023-02-04T23:08:33.970Z,95556.00
2023-02-04T23:11:00.352Z,95565.06
2023-02-04T23:13:26.814Z,95576.00
2023-02-04T23:15:53.418Z,95588.44
2023-02-04T23:18:19.990Z,95569.31
2023-02-04T23:20:46.497Z,95557.72
2023-02-04T23:23:17.425Z,95577.41
2023-02-04T23:25:45.752Z,95567.00
2023-02-04T23:28:12.274Z,95588.75
2023-02-04T23:30:39.204Z,95577.59
2023-02-04T23:33:05.650Z,95563.09
2023-02-04T23:35:32.946Z,95557.47
2023-02-04T23:37:59.649Z,95567.75
2023-02-04T23:40:26.042Z,95578.94
2023-02-04T23:42:52.450Z,95573.31
2023-02-04T23:45:18.833Z,95557.31
2023-02-04T23:47:45.238Z,95586.50
2023-02-04T23:50:11.636Z,95576.25
2023-02-04T23:52:38.001Z,95570.28
2023-02-04T23:55:05.553Z,95588.34
2023-02-04T23:57:31.953Z,95579.34
2023-02-04T23:59:58.334Z,95582.84
